This is the latest recevied weather packets stored in our database for station/object SLG. If no packets are shown the sender has not sent any weather packets the latest 10 day(s).
| Time | Temp. | Humidity | Pressure | Rain* | Wind** | Luminosity | Snow |
|---|---|---|---|---|---|---|---|
| 1777638736 | 22.22° C | 24% | 1023.3 hPa | 0 mm | - | - | - |
| 1777636931 | 21.67° C | 26% | 1023.6 hPa | 0 mm | - | - | - |
| 1777635130 | 21.11° C | 26% | 1023.9 hPa | 0 mm | - | - | - |
| 1777633331 | 20.56° C | 27% | 1024.2 hPa | 0 mm | - | - | - |
| 1777631531 | 19.44° C | 30% | 1024.4 hPa | 0 mm | - | - | - |
| 1777629731 | 17.78° C | 31% | 1024.6 hPa | 0 mm | - | - | - |
| 1777627930 | 17.22° C | 33% | 1024.7 hPa | 0 mm | - | - | - |
| 1777626132 | 15.56° C | 36% | 1024.7 hPa | 0 mm | - | - | - |
| 1777624331 | 13.89° C | 40% | 1024.6 hPa | 0 mm | - | - | - |
| 1777622532 | 12.78° C | 42% | 1024.7 hPa | 0 mm | - | - | - |
| 1777620733 | 11.11° C | 44% | 1024.7 hPa | 0 mm | - | - | - |
| 1777618930 | 8.89° C | 48% | 1024.6 hPa | 0 mm | - | - | - |
| 1777617131 | 6.67° C | 56% | 1024.5 hPa | 0 mm | - | - | - |
| 1777615333 | 4.44° C | 65% | 1024.4 hPa | 0 mm | - | - | - |
| 1777613531 | 2.22° C | 70% | 1024.2 hPa | 0 mm | - | - | - |
| 1777611731 | 1.67° C | 68% | 1024 hPa | 0 mm | - | - | - |
| 1777609931 | 1.67° C | 66% | 1023.6 hPa | 0 mm | - | - | - |
| 1777608131 | 1.67° C | 65% | 1023.7 hPa | 0 mm | - | - | - |
| 1777606332 | 2.22° C | 63% | 1023.7 hPa | 0 mm | - | - | - |
| 1777604532 | 2.22° C | 61% | 1023.8 hPa | 0 mm | - | - | - |
| 1777602733 | 3.33° C | 57% | 1023.7 hPa | 0 mm | - | - | - |
| 1777600931 | 3.89° C | 54% | 1023.8 hPa | 0 mm | - | - | - |
| 1777599131 | 4.44° C | 52% | 1023.6 hPa | 0 mm | - | - | - |
| 1777597331 | 5.56° C | 48% | 1023.7 hPa | 0 mm | - | - | - |
| 1777595529 | 6.11° C | 44% | 1023.7 hPa | 0 mm | - | - | - |
* Rain since midnight (hover to see other rain measurements)
** Current wind speed in m/s (hover to see current wind gust speed)